Time;durP1;ratioP1;P1;durP2;ratioP2;P2;SDS_P1;SDS_P2;PMS_P1;PMS_P2;Temp;Humidity;BMP_temperature;BMP_pressure;BME280_temperature;BME280_humidity;BME280_pressure;Samples;Min_cycle;Max_cycle;Signal;HPM_P1;HPM_P2
2023/06/27 00:02:20;;;;;;;4.93;1.67;;;;;;;17.78;59.61;100134.44;12188164;19;19927;-82
2023/06/27 00:06:22;;;;;;;4.15;1.60;;;;;;;17.77;59.69;100135.53;12212601;19;20475;-82
2023/06/27 00:10:24;;;;;;;5.25;1.67;;;;;;;17.74;59.94;100139.75;12212926;19;20074;-80
2023/06/27 00:14:26;;;;;;;4.25;1.73;;;;;;;17.73;60.13;100135.28;12191598;19;20051;-82
2023/06/27 00:18:34;;;;;;;5.32;1.63;;;;;;;17.73;60.23;100132.50;12214770;19;20010;-81
2023/06/27 00:22:39;;;;;;;2.80;1.40;;;;;;;17.73;60.63;100148.41;12211655;19;20003;-83
2023/06/27 00:26:41;;;;;;;3.05;1.80;;;;;;;17.68;60.51;100143.69;12192514;19;20503;-81
2023/06/27 00:30:43;;;;;;;4.10;1.45;;;;;;;17.66;61.31;100151.50;12214143;19;20010;-83
2023/06/27 00:34:45;;;;;;;3.90;1.43;;;;;;;17.60;61.67;100141.50;12216944;19;20508;-80
2023/06/27 00:38:46;;;;;;;4.05;1.70;;;;;;;17.51;62.24;100149.63;12192801;19;20010;-82
2023/06/27 00:42:48;;;;;;;5.55;1.63;;;;;;;17.43;62.65;100154.97;12213957;19;20034;-84
2023/06/27 00:46:51;;;;;;;5.20;1.73;;;;;;;17.31;62.73;100153.38;12192431;19;20455;-83
2023/06/27 00:50:57;;;;;;;3.97;1.60;;;;;;;17.25;63.43;100157.31;12215965;19;20022;-81
2023/06/27 00:54:59;;;;;;;3.67;2.00;;;;;;;17.19;63.52;100166.81;12208615;19;20011;-82
2023/06/27 00:59:02;;;;;;;3.75;1.50;;;;;;;17.11;63.31;100159.03;12192526;19;20034;-83
2023/06/27 01:03:04;;;;;;;6.78;1.73;;;;;;;17.01;63.82;100159.06;12212139;19;20025;-83
2023/06/27 01:07:23;;;;;;;4.45;1.83;;;;;;;16.93;65.04;100160.50;12207194;19;20002;-81
2023/06/27 01:11:33;;;;;;;3.22;1.50;;;;;;;16.87;65.34;100160.81;12193406;19;20113;-82
2023/06/27 01:15:35;;;;;;;5.32;1.60;;;;;;;16.82;65.29;100168.03;12216823;19;20009;-81
2023/06/27 01:19:37;;;;;;;;;;;;;;;16.73;66.74;100164.13;12219367;19;20006;-80
2023/06/27 01:23:55;;;;;;;5.15;1.75;;;;;;;16.70;67.28;100161.09;12190183;19;19906;-81
2023/06/27 01:27:57;;;;;;;8.48;1.80;;;;;;;16.61;66.94;100163.63;12210558;19;20007;-81
2023/06/27 01:32:06;;;;;;;3.38;1.52;;;;;;;16.54;67.51;100163.09;12188295;19;20658;-81
2023/06/27 01:36:18;;;;;;;5.75;1.83;;;;;;;16.47;68.23;100159.75;12213162;19;20015;-82
2023/06/27 01:40:23;;;;;;;6.00;1.65;;;;;;;16.40;68.27;100160.88;12213175;19;20014;-81
2023/06/27 01:44:26;;;;;;;4.57;1.40;;;;;;;16.38;68.68;100151.97;12186837;19;20018;-82
2023/06/27 01:48:29;;;;;;;4.13;1.40;;;;;;;16.36;68.91;100148.66;12223275;19;20011;-82
2023/06/27 01:52:31;;;;;;;4.30;1.60;;;;;;;16.36;68.77;100148.66;12218479;19;20627;-80
2023/06/27 01:56:32;;;;;;;5.55;1.40;;;;;;;16.34;68.87;100148.06;12200859;19;20028;-83
2023/06/27 02:00:34;;;;;;;6.10;2.28;;;;;;;16.33;69.46;100143.63;12215519;19;20027;-83
2023/06/27 02:04:36;;;;;;;3.95;1.58;;;;;;;16.27;70.09;100149.47;12220000;19;20015;-82
2023/06/27 02:08:38;;;;;;;5.40;1.73;;;;;;;16.17;70.50;100144.75;12202015;19;20038;-82
2023/06/27 02:12:39;;;;;;;4.75;1.30;;;;;;;16.12;70.78;100153.09;12222991;19;20007;-80
2023/06/27 02:16:41;;;;;;;5.72;1.95;;;;;;;16.06;71.02;100156.97;12224808;19;20015;-80
2023/06/27 02:20:43;;;;;;;4.80;1.48;;;;;;;15.98;71.82;100152.81;12201606;19;20011;-82
2023/06/27 02:24:45;;;;;;;3.85;1.67;;;;;;;15.87;72.07;100151.97;12219094;19;20011;-79
2023/06/27 02:28:46;;;;;;;5.20;1.65;;;;;;;15.80;72.74;100145.88;12217953;19;20005;-80
2023/06/27 02:32:48;;;;;;;4.72;1.52;;;;;;;15.75;73.11;100145.84;12229544;19;20475;-81
2023/06/27 02:36:50;;;;;;;8.32;2.65;;;;;;;15.68;73.42;100148.91;12223956;19;20080;-83
2023/06/27 02:40:52;;;;;;;2.90;1.30;;;;;;;15.63;74.17;100134.13;12198950;19;20014;-81
2023/06/27 02:44:54;;;;;;;5.43;1.33;;;;;;;15.58;74.44;100137.72;12217927;19;20779;-84
2023/06/27 02:48:56;;;;;;;3.85;1.58;;;;;;;15.56;74.95;100139.97;12221024;19;20007;-83
2023/06/27 02:52:58;;;;;;;3.45;1.40;;;;;;;15.56;75.07;100139.97;12197038;19;20032;-82
2023/06/27 02:57:01;;;;;;;4.63;1.92;;;;;;;15.53;75.84;100146.06;12223181;19;20007;-82
2023/06/27 03:01:03;;;;;;;4.93;1.90;;;;;;;15.52;76.25;100149.94;12222192;19;20026;-83
2023/06/27 03:05:08;;;;;;;4.78;1.50;;;;;;;15.49;76.90;100158.81;12200700;19;20408;-81
2023/06/27 03:09:11;;;;;;;2.75;1.33;;;;;;;15.46;76.65;100151.03;12223838;19;20007;-84
2023/06/27 03:13:13;;;;;;;4.05;1.88;;;;;;;15.46;77.21;100162.97;12223654;19;20499;-83
2023/06/27 03:17:15;;;;;;;4.00;1.42;;;;;;;15.45;76.90;100161.31;12203034;19;20026;-83
2023/06/27 03:21:17;;;;;;;4.78;1.73;;;;;;;15.45;77.50;100166.03;12225618;19;20006;-82
2023/06/27 03:25:18;;;;;;;4.18;1.38;;;;;;;15.44;78.19;100170.78;12219182;19;20010;-84
2023/06/27 03:29:21;;;;;;;3.00;1.55;;;;;;;15.43;78.22;100165.47;12201412;19;20041;-82
2023/06/27 03:33:23;;;;;;;4.97;1.50;;;;;;;15.41;78.69;100165.75;12225349;19;20531;-82
2023/06/27 03:37:28;;;;;;;4.43;1.63;;;;;;;15.37;78.64;100172.13;12226037;19;20022;-83
2023/06/27 03:41:30;;;;;;;3.03;1.63;;;;;;;15.38;79.45;100171.03;12202072;19;20003;-84
2023/06/27 03:45:32;;;;;;;4.57;1.58;;;;;;;15.42;80.03;100174.91;12226735;19;20022;-82
2023/06/27 03:49:36;;;;;;;5.03;1.70;;;;;;;15.48;79.86;100177.44;12235828;19;20070;-81
2023/06/27 03:53:38;;;;;;;3.42;1.50;;;;;;;15.54;79.49;100186.63;12199149;19;20010;-81
2023/06/27 03:57:39;;;;;;;3.05;1.40;;;;;;;15.62;79.28;100183.31;12224941;19;20013;-84
2023/06/27 04:01:41;;;;;;;3.50;1.65;;;;;;;15.69;78.92;100183.06;12228575;19;20367;-84
2023/06/27 04:05:43;;;;;;;2.47;1.30;;;;;;;15.78;79.34;100184.19;12204039;19;20407;-83
2023/06/27 04:09:46;;;;;;;6.80;1.38;;;;;;;15.90;79.42;100192.28;12222005;19;20353;-81
2023/06/27 04:13:48;;;;;;;3.72;1.50;;;;;;;15.98;78.27;100196.47;12201110;19;20019;-84
2023/06/27 04:17:50;;;;;;;5.95;2.60;;;;;;;16.05;78.30;100208.13;12230736;19;20014;-80
2023/06/27 04:21:52;;;;;;;4.68;1.60;;;;;;;16.15;77.81;100208.13;12260072;19;20009;-80
2023/06/27 04:26:04;;;;;;;4.32;1.52;;;;;;;16.29;77.88;100206.47;12237880;19;20043;-79
2023/06/27 04:30:09;;;;;;;5.55;1.50;;;;;;;16.41;77.38;100212.59;12244273;19;20006;-83
2023/06/27 04:34:13;;;;;;;4.97;1.60;;;;;;;16.47;77.27;100207.84;12214314;19;20114;-82
2023/06/27 04:38:15;;;;;;;4.82;1.83;;;;;;;16.55;77.16;100200.91;12188511;19;20808;-84
2023/06/27 04:42:17;;;;;;;3.50;1.90;;;;;;;16.66;77.30;100207.28;12213249;19;20006;-83
2023/06/27 04:46:18;;;;;;;3.15;1.70;;;;;;;16.82;76.29;100207.00;12217716;19;20024;-82
2023/06/27 04:50:20;;;;;;;3.13;1.38;;;;;;;16.91;75.57;100206.44;12195230;19;20030;-81
2023/06/27 04:54:22;;;;;;;5.50;1.60;;;;;;;16.99;75.37;100201.13;12206600;19;20010;-82
2023/06/27 04:58:24;;;;;;;3.35;1.58;;;;;;;17.08;74.55;100215.31;12216709;19;20256;-82
2023/06/27 05:02:26;;;;;;;4.65;1.73;;;;;;;17.19;73.21;100222.50;12187925;19;20792;-83
2023/06/27 05:06:28;;;;;;;5.10;2.00;;;;;;;17.27;72.06;100224.69;12213537;19;20007;-83
2023/06/27 05:10:31;;;;;;;4.85;2.50;;;;;;;17.34;71.47;100212.41;12214207;19;20010;-83
2023/06/27 05:14:33;;;;;;;3.65;2.22;;;;;;;17.35;70.96;100228.84;12192471;19;20011;-83
2023/06/27 05:18:35;;;;;;;4.40;1.50;;;;;;;17.36;71.63;100230.50;12211777;19;20014;-83
2023/06/27 05:22:37;;;;;;;6.57;1.65;;;;;;;17.43;72.05;100238.53;12220910;19;20023;-84
2023/06/27 05:26:39;;;;;;;6.32;1.80;;;;;;;17.50;71.72;100227.94;12205967;19;20341;-82
2023/06/27 05:30:40;;;;;;;8.73;1.70;;;;;;;17.65;71.16;100235.41;12226122;19;20027;-80
2023/06/27 05:34:42;;;;;;;7.53;1.65;;;;;;;17.74;70.14;100231.72;12224668;19;20074;-80
2023/06/27 05:38:45;;;;;;;3.95;1.75;;;;;;;17.87;69.27;100226.66;12209614;19;20368;-79
2023/06/27 05:42:48;;;;;;;4.35;1.80;;;;;;;18.01;68.90;100233.25;12218384;19;20018;-80
2023/06/27 05:46:50;;;;;;;7.38;1.70;;;;;;;18.02;67.66;100223.75;12196554;19;20018;-81
2023/06/27 05:50:54;;;;;;;5.88;2.13;;;;;;;18.03;68.18;100230.19;12209220;19;20006;-81
2023/06/27 05:54:56;;;;;;;6.75;1.80;;;;;;;18.08;68.11;100228.19;12229193;19;20010;-80
2023/06/27 05:58:58;;;;;;;3.65;1.40;;;;;;;18.28;68.28;100218.84;12204975;19;20034;-81
2023/06/27 06:03:00;;;;;;;6.37;2.03;;;;;;;18.49;68.00;100222.28;12227316;19;20418;-80
2023/06/27 06:07:03;;;;;;;5.25;2.08;;;;;;;18.76;67.62;100221.78;12231845;19;20010;-81
2023/06/27 06:11:05;;;;;;;5.55;2.08;;;;;;;18.99;65.08;100222.13;12208938;19;20059;-80
2023/06/27 06:15:07;;;;;;;7.93;1.73;;;;;;;19.08;64.12;100234.31;12230180;19;20014;-81
2023/06/27 06:19:11;;;;;;;4.28;1.75;;;;;;;19.19;63.73;100235.03;12227908;19;20018;-80
2023/06/27 06:23:13;;;;;;;;;;;;;;;19.30;62.65;100225.38;12209205;19;20002;-81
2023/06/27 06:27:15;;;;;;;4.53;1.60;;;;;;;19.48;62.45;100241.38;12232127;19;19914;-81
2023/06/27 06:31:18;;;;;;;6.68;1.80;;;;;;;19.65;60.57;100238.09;12230811;19;20006;-81
2023/06/27 06:35:20;;;;;;;6.85;1.75;;;;;;;19.81;59.65;100249.94;12210716;19;20017;-82
2023/06/27 06:39:22;;;;;;;2.73;1.20;;;;;;;19.97;59.19;100250.53;12228480;19;20007;-82
2023/06/27 06:43:25;;;;;;;5.05;1.55;;;;;;;20.06;59.08;100250.69;12223376;19;20010;-83
2023/06/27 06:47:27;;;;;;;3.85;2.00;;;;;;;20.18;58.28;100246.28;12206774;19;20021;-82
2023/06/27 06:51:29;;;;;;;4.95;1.77;;;;;;;20.29;57.20;100249.78;12229195;19;20135;-81
2023/06/27 06:55:31;;;;;;;3.05;1.40;;;;;;;20.38;57.18;100242.34;12229785;19;20110;-81
2023/06/27 06:59:33;;;;;;;6.50;1.73;;;;;;;20.36;55.34;100241.81;12205205;19;20007;-81
2023/06/27 07:03:36;;;;;;;;;;;;;;;20.61;54.34;100242.53;12228393;19;20080;-81
2023/06/27 07:07:38;;;;;;;5.63;1.30;;;;;;;20.83;53.13;100241.88;12229305;19;19945;-82
2023/06/27 07:11:40;;;;;;;3.25;1.30;;;;;;;20.53;53.77;100240.47;12206658;19;20052;-82
2023/06/27 07:15:43;;;;;;;4.55;1.80;;;;;;;20.40;54.85;100237.25;12229587;19;20014;-80
2023/06/27 07:19:44;;;;;;;5.27;1.20;;;;;;;20.71;54.41;100242.38;12229765;19;20384;-82
2023/06/27 07:23:47;;;;;;;;;;;;;;;21.01;52.57;100228.94;12203579;19;20007;-80
2023/06/27 07:27:49;;;;;;;6.18;1.42;;;;;;;21.48;51.79;100222.13;12225982;19;19903;-80
2023/06/27 07:31:52;;;;;;;3.50;1.50;;;;;;;21.73;49.12;100223.56;12206248;19;20010;-80
2023/06/27 07:35:54;;;;;;;3.80;1.40;;;;;;;21.98;48.90;100212.88;12225944;19;20372;-82
2023/06/27 07:39:57;;;;;;;4.93;1.35;;;;;;;22.15;46.68;100215.03;12225561;19;20014;-81
2023/06/27 07:44:00;;;;;;;4.07;1.30;;;;;;;22.14;47.09;100213.38;12201069;19;20010;-82
2023/06/27 07:48:03;;;;;;;9.75;1.88;;;;;;;22.34;46.90;100198.00;12233559;19;20078;-81
2023/06/27 07:52:07;;;;;;;4.32;1.40;;;;;;;22.59;46.30;100197.38;12226101;19;20002;-81
2023/06/27 07:56:09;;;;;;;4.78;1.55;;;;;;;22.80;45.03;100199.63;12205831;19;20377;-82
2023/06/27 08:00:12;;;;;;;3.57;1.27;;;;;;;23.10;44.92;100192.38;12221377;19;20026;-81
2023/06/27 08:04:17;;;;;;;3.90;1.60;;;;;;;23.49;44.00;100194.31;12223960;19;20027;-81
2023/06/27 08:08:20;;;;;;;3.28;1.63;;;;;;;23.92;42.53;100192.78;12202887;19;20062;-82
2023/06/27 08:12:22;;;;;;;7.18;1.55;;;;;;;23.97;42.06;100193.41;12223035;19;20365;-81
2023/06/27 08:16:24;;;;;;;6.93;1.67;;;;;;;23.49;42.99;100187.88;12223903;19;20487;-82
2023/06/27 08:20:28;;;;;;;5.35;1.70;;;;;;;23.11;42.86;100185.59;12198835;19;20014;-81
2023/06/27 08:24:31;;;;;;;8.93;1.80;;;;;;;23.39;42.99;100192.63;12214732;19;20027;-82
2023/06/27 08:28:33;;;;;;;4.47;1.63;;;;;;;23.27;42.15;100188.81;12217266;19;20011;-83
2023/06/27 08:32:35;;;;;;;27.98;6.68;;;;;;;23.15;43.00;100190.25;12196842;19;20680;-82
2023/06/27 08:36:37;;;;;;;50.80;13.93;;;;;;;23.57;42.06;100193.50;12218169;19;20492;-83
2023/06/27 08:40:42;;;;;;;10.77;2.42;;;;;;;23.78;41.68;100184.47;12216310;19;20010;-84
2023/06/27 08:44:46;;;;;;;5.88;1.83;;;;;;;23.93;41.23;100185.97;12190495;19;20027;-84
2023/06/27 08:48:53;;;;;;;6.00;1.98;;;;;;;23.96;40.18;100174.06;12217581;19;20015;-81
2023/06/27 08:52:57;;;;;;;4.60;1.70;;;;;;;24.10;40.71;100175.53;12193609;19;20014;-82
2023/06/27 08:57:05;;;;;;;3.88;1.45;;;;;;;23.98;41.09;100175.38;12218150;19;20495;-82
2023/06/27 09:01:11;;;;;;;3.88;1.52;;;;;;;23.88;40.57;100156.00;12218107;19;20045;-81
2023/06/27 09:05:15;;;;;;;3.08;1.73;;;;;;;23.63;40.50;100154.81;12195393;19;20014;-81
2023/06/27 09:09:19;;;;;;;5.93;1.73;;;;;;;23.65;39.90;100170.19;12215987;19;20018;-82
2023/06/27 09:13:22;;;;;;;4.70;1.60;;;;;;;23.80;40.49;100163.28;12217991;19;20006;-82
2023/06/27 09:17:24;;;;;;;4.10;1.65;;;;;;;23.69;39.35;100158.28;12198288;19;20769;-83
2023/06/27 09:21:27;;;;;;;2.63;1.08;;;;;;;23.41;38.66;100167.03;12220364;19;20034;-82
2023/06/27 09:25:32;;;;;;;4.35;1.45;;;;;;;23.80;38.94;100149.22;12222902;19;20002;-82
2023/06/27 09:29:36;;;;;;;3.58;1.20;;;;;;;24.30;37.85;100156.28;12200812;19;20032;-83
2023/06/27 09:33:43;;;;;;;4.53;1.80;;;;;;;24.40;37.42;100153.16;12217910;19;20135;-83
2023/06/27 09:37:47;;;;;;;4.28;1.20;;;;;;;24.63;37.12;100156.63;12198902;19;20015;-83
2023/06/27 09:41:53;;;;;;;5.15;1.95;;;;;;;24.55;37.61;100157.47;12218509;19;20040;-84
2023/06/27 09:45:58;;;;;;;4.40;1.65;;;;;;;24.43;36.70;100158.16;12221106;19;20041;-83
2023/06/27 09:50:06;;;;;;;4.80;1.48;;;;;;;24.34;36.85;100162.94;12200607;19;20432;-83
2023/06/27 09:54:11;;;;;;;6.72;1.55;;;;;;;24.86;36.52;100151.53;12222982;19;20018;-83
2023/06/27 09:58:28;;;;;;;3.15;1.30;;;;;;;25.44;34.77;100143.50;12219523;19;20074;-83
2023/06/27 10:02:31;;;;;;;5.10;1.50;;;;;;;25.30;35.24;100146.56;12188392;19;20022;-82
2023/06/27 10:06:34;;;;;;;3.65;1.80;;;;;;;24.93;35.14;100145.41;12217864;19;20378;-83
2023/06/27 10:10:38;;;;;;;5.07;1.33;;;;;;;24.43;36.43;100155.31;12223016;19;20027;-81
2023/06/27 10:14:47;;;;;;;4.65;1.70;;;;;;;24.51;36.47;100146.03;12199231;19;20039;-83
2023/06/27 10:18:51;;;;;;;3.53;1.50;;;;;;;25.14;35.77;100145.50;12224659;19;20034;-83
2023/06/27 10:23:05;;;;;;;4.90;1.77;;;;;;;25.65;34.42;100144.34;12198619;19;20030;-81
2023/06/27 10:27:13;;;;;;;10.30;1.70;;;;;;;25.75;33.98;100143.09;12224253;19;20030;-79
2023/06/27 10:31:39;;;;;;;4.40;1.60;;;;;;;26.01;34.15;100142.09;12221356;19;20006;-82
2023/06/27 10:35:50;;;;;;;4.78;1.50;;;;;;;26.18;31.94;100138.28;12203105;19;20045;-82
2023/06/27 10:39:56;;;;;;;3.60;1.20;;;;;;;26.17;33.18;100128.97;12220797;19;20334;-84
2023/06/27 10:44:09;;;;;;;6.70;1.50;;;;;;;26.66;32.74;100120.69;12198359;19;20181;-82
2023/06/27 10:48:25;;;;;;;3.47;1.45;;;;;;;26.79;31.69;100113.03;12225291;19;20011;-83
2023/06/27 10:52:28;;;;;;;2.78;1.40;;;;;;;27.00;32.19;100113.75;12223623;19;20023;-83
2023/06/27 10:56:34;;;;;;;3.83;1.58;;;;;;;27.10;31.75;100112.47;12199650;19;20030;-83
2023/06/27 11:00:41;;;;;;;5.00;1.40;;;;;;;26.91;32.38;100118.69;12216059;19;20003;-83
2023/06/27 11:04:46;;;;;;;3.72;1.40;;;;;;;26.59;32.56;100111.94;12218688;19;20590;-81
2023/06/27 11:08:56;;;;;;;3.45;1.45;;;;;;;26.48;31.88;100102.25;12203263;19;20010;-82
2023/06/27 11:13:28;;;;;;;5.75;1.90;;;;;;;26.97;31.57;100103.13;12216832;19;20109;-81
2023/06/27 11:17:35;;;;;;;11.18;1.92;;;;;;;27.07;31.48;100093.38;12198860;19;20073;-83
2023/06/27 11:21:38;;;;;;;4.65;1.63;;;;;;;27.34;30.91;100096.69;12217129;19;20011;-82
2023/06/27 11:25:45;;;;;;;6.28;1.60;;;;;;;27.17;31.14;100090.09;12225012;19;20018;-83
2023/06/27 11:29:48;;;;;;;6.00;2.05;;;;;;;27.16;31.03;100079.16;12199073;19;20014;-81
2023/06/27 11:33:58;;;;;;;6.45;1.50;;;;;;;26.87;30.70;100091.50;12217429;19;20003;-82
2023/06/27 11:38:06;;;;;;;3.30;1.23;;;;;;;26.51;30.69;100085.44;12197936;19;20079;-82
2023/06/27 11:42:09;;;;;;;4.53;1.92;;;;;;;26.62;30.45;100085.78;12216815;19;20016;-80
2023/06/27 11:46:19;;;;;;;2.47;1.40;;;;;;;26.42;30.94;100090.34;12218240;19;20014;-79
2023/06/27 11:50:21;;;;;;;6.10;1.35;;;;;;;26.47;30.43;100077.97;12199887;19;20021;-81
2023/06/27 11:54:23;;;;;;;3.80;1.58;;;;;;;26.89;29.90;100077.81;12220284;19;20010;-80
2023/06/27 11:58:29;;;;;;;4.43;1.52;;;;;;;27.37;29.85;100065.66;12220241;19;20104;-82
2023/06/27 12:02:33;;;;;;;3.53;1.35;;;;;;;27.46;29.10;100071.19;12192531;19;20023;-81
2023/06/27 12:06:34;;;;;;;6.53;1.65;;;;;;;27.59;29.96;100066.31;12217963;19;20080;-80
2023/06/27 12:10:54;;;;;;;2.58;1.40;;;;;;;27.85;28.51;100060.25;12219717;19;20081;-81
2023/06/27 12:15:13;;;;;;;3.78;1.35;;;;;;;27.87;28.12;100060.69;12197050;19;20028;-80
2023/06/27 12:19:21;;;;;;;4.22;1.42;;;;;;;28.18;27.98;100057.94;12220194;19;20042;-82
2023/06/27 12:23:28;;;;;;;6.05;1.60;;;;;;;28.78;26.58;100034.41;12193117;19;20075;-80
2023/06/27 12:27:34;;;;;;;2.83;1.30;;;;;;;28.43;26.70;100040.81;12218605;19;20007;-80
2023/06/27 12:31:38;;;;;;;5.43;1.40;;;;;;;28.65;26.26;100022.34;12230049;19;20010;-82
2023/06/27 12:35:42;;;;;;;2.90;1.38;;;;;;;28.99;26.85;100028.44;12195117;19;20022;-82
2023/06/27 12:39:44;;;;;;;3.80;1.52;;;;;;;29.20;25.99;100030.97;12213896;19;20536;-77
2023/06/27 12:43:49;;;;;;;3.17;1.52;;;;;;;29.62;26.40;100021.78;12191899;19;20413;-81
2023/06/27 12:47:51;;;;;;;4.32;1.40;;;;;;;30.40;25.53;100009.13;12215603;19;20010;-82
2023/06/27 12:51:52;;;;;;;3.80;1.45;;;;;;;30.66;25.13;100022.53;12209466;19;20006;-79
2023/06/27 12:55:59;;;;;;;5.72;1.85;;;;;;;30.08;24.77;100016.22;12188738;19;20016;-79
2023/06/27 13:00:03;;;;;;;4.60;1.60;;;;;;;29.74;25.25;100004.56;12210227;19;20018;-82
2023/06/27 13:04:09;;;;;;;3.25;1.33;;;;;;;30.21;24.29;100003.50;12209040;19;20019;-78
2023/06/27 13:08:12;;;;;;;5.15;1.90;;;;;;;30.12;24.50;99991.50;12192596;19;20022;-81
2023/06/27 13:12:14;;;;;;;2.45;1.20;;;;;;;30.46;24.13;99994.56;12215040;19;20085;-81
2023/06/27 13:16:17;;;;;;;3.08;1.35;;;;;;;30.74;23.75;99997.91;12212852;19;20041;-81
2023/06/27 13:20:20;;;;;;;8.52;1.95;;;;;;;31.47;23.64;99980.69;12189879;19;20499;-81
2023/06/27 13:24:23;;;;;;;6.43;1.70;;;;;;;32.25;22.67;99979.97;12211552;19;20353;-80
2023/06/27 13:28:28;;;;;;;6.20;1.30;;;;;;;32.65;21.28;99976.25;12213347;19;20010;-81
2023/06/27 13:32:33;;;;;;;4.53;1.58;;;;;;;33.08;21.20;99976.59;12188494;19;20042;-80
2023/06/27 13:36:34;;;;;;;4.40;2.25;;;;;;;33.94;20.47;99971.22;12211275;19;20038;-82
2023/06/27 13:40:38;;;;;;;5.63;1.80;;;;;;;34.29;19.61;99959.06;12210304;19;20007;-81
2023/06/27 13:44:41;;;;;;;3.58;1.40;;;;;;;35.14;19.04;99957.38;12214484;19;20025;-82
2023/06/27 13:48:43;;;;;;;3.25;1.73;;;;;;;34.80;19.46;99971.31;12225356;19;20032;-78
2023/06/27 13:52:45;;;;;;;4.70;1.65;;;;;;;33.62;19.98;99951.16;12221916;19;20491;-84
2023/06/27 13:56:51;;;;;;;5.13;1.70;;;;;;;32.08;21.30;99958.63;12206129;19;20467;-82
2023/06/27 14:00:53;;;;;;;4.80;1.75;;;;;;;31.30;21.86;99943.03;12220678;19;20011;-79
2023/06/27 14:04:56;;;;;;;6.20;1.50;;;;;;;31.15;22.20;99952.59;12194085;19;20010;-82
2023/06/27 14:08:58;;;;;;;;;;;;;;;32.08;21.73;99942.34;12217090;19;20397;-80
2023/06/27 14:13:00;;;;;;;4.28;1.50;;;;;;;31.97;21.71;99949.97;12210164;19;19956;-80
2023/06/27 14:17:03;;;;;;;8.00;1.70;;;;;;;31.39;22.26;99944.81;12197426;19;20010;-78
2023/06/27 14:21:08;;;;;;;3.08;1.33;;;;;;;33.07;20.88;99930.06;12214845;19;20035;-78
2023/06/27 14:25:15;;;;;;;3.33;1.42;;;;;;;33.88;20.16;99927.97;12220427;19;20030;-79
2023/06/27 14:29:16;;;;;;;3.17;1.58;;;;;;;33.06;20.92;99951.28;12200156;19;20359;-78
2023/06/27 14:33:21;;;;;;;3.95;1.58;;;;;;;32.12;21.53;99942.38;12216106;19;20017;-80
2023/06/27 14:37:29;;;;;;;4.85;1.67;;;;;;;31.35;22.60;99941.09;12224737;19;20011;-80
2023/06/27 14:41:31;;;;;;;4.65;1.42;;;;;;;30.82;23.51;99933.44;12200583;19;20037;-78
2023/06/27 14:45:33;;;;;;;4.53;1.65;;;;;;;29.91;24.15;99935.94;12220983;19;20011;-82
2023/06/27 14:49:35;;;;;;;5.85;1.40;;;;;;;29.12;24.69;99929.84;12222630;19;20017;-82
2023/06/27 14:53:37;;;;;;;;;;;;;;;28.67;25.23;99926.38;12198416;19;20006;-80
2023/06/27 14:57:39;;;;;;;4.97;1.30;;;;;;;28.79;25.19;99919.78;12221955;19;20357;-79
2023/06/27 15:01:44;;;;;;;6.28;1.35;;;;;;;29.06;25.37;99918.81;12214688;19;20018;-80
2023/06/27 15:05:48;;;;;;;2.70;1.50;;;;;;;28.74;25.57;99920.91;12204763;19;20017;-80
2023/06/27 15:09:52;;;;;;;3.65;1.67;;;;;;;28.18;26.03;99924.78;12219703;19;20015;-81
2023/06/27 15:13:54;;;;;;;5.70;1.60;;;;;;;27.73;26.78;99925.19;12196626;19;20102;-81
2023/06/27 15:17:56;;;;;;;4.88;1.50;;;;;;;27.22;27.24;99931.44;12218834;19;20022;-81
2023/06/27 15:21:58;;;;;;;5.50;1.70;;;;;;;27.01;27.56;99922.28;12216690;19;20388;-79
2023/06/27 15:26:00;;;;;;;10.38;1.60;;;;;;;26.97;28.08;99916.50;12192602;19;20010;-78
2023/06/27 15:30:06;;;;;;;11.10;1.70;;;;;;;26.71;28.41;99905.63;12216547;19;20014;-82
2023/06/27 15:34:08;;;;;;;4.07;1.30;;;;;;;26.61;28.97;99913.75;12218469;19;20334;-81
2023/06/27 15:38:10;;;;;;;6.78;1.88;;;;;;;26.40;29.14;99916.69;12199360;19;20084;-80
2023/06/27 15:42:14;;;;;;;5.72;1.60;;;;;;;26.16;29.79;99914.69;12214580;19;20007;-79
2023/06/27 15:46:16;;;;;;;4.57;2.08;;;;;;;25.85;30.41;99905.59;12215144;19;20353;-81
2023/06/27 15:50:17;;;;;;;6.70;1.70;;;;;;;25.66;30.86;99896.81;12195870;19;20010;-80
2023/06/27 15:54:20;;;;;;;4.13;1.77;;;;;;;25.63;30.70;99886.22;12215391;19;20563;-81
2023/06/27 15:58:22;;;;;;;4.40;1.85;;;;;;;25.50;31.08;99878.94;12220172;19;20491;-81
2023/06/27 16:02:26;;;;;;;3.85;1.45;;;;;;;25.10;31.77;99890.72;12189363;19;20023;-79
2023/06/27 16:06:30;;;;;;;3.10;1.45;;;;;;;24.73;31.83;99893.34;12208548;19;20014;-77
2023/06/27 16:10:32;;;;;;;5.93;1.70;;;;;;;24.59;32.49;99887.16;12220244;19;20014;-81
2023/06/27 16:14:35;;;;;;;8.52;2.03;;;;;;;24.64;32.41;99886.94;12193840;19;20010;-80
2023/06/27 16:18:37;;;;;;;6.03;1.60;;;;;;;24.63;32.50;99888.09;12217573;19;20006;-82
2023/06/27 16:22:39;;;;;;;4.45;1.58;;;;;;;24.53;32.66;99884.53;12219952;19;20014;-81
2023/06/27 16:26:41;;;;;;;5.37;1.97;;;;;;;24.59;33.11;99887.16;12198560;19;20463;-82
2023/06/27 16:30:43;;;;;;;4.07;1.57;;;;;;;24.39;33.49;99877.47;12218899;19;20014;-80
2023/06/27 16:34:46;;;;;;;5.78;1.70;;;;;;;24.33;33.19;99874.88;12218244;19;20015;-81
2023/06/27 16:38:48;;;;;;;;;;;;;;;24.30;33.88;99871.88;12198201;19;20014;-81
2023/06/27 16:42:51;;;;;;;4.15;1.65;;;;;;;24.25;33.87;99872.09;12214469;19;19927;-81
2023/06/27 16:46:54;;;;;;;8.40;1.80;;;;;;;24.23;34.11;99863.16;12194481;19;20017;-79
2023/06/27 16:50:57;;;;;;;5.57;1.77;;;;;;;24.27;34.06;99858.47;12222431;19;20231;-81
2023/06/27 16:55:01;;;;;;;7.47;1.98;;;;;;;24.64;33.70;99858.78;12218903;19;20079;-81
2023/06/27 16:59:03;;;;;;;6.68;1.85;;;;;;;24.92;33.27;99850.59;12193061;19;20006;-80
2023/06/27 17:03:06;;;;;;;7.20;1.67;;;;;;;25.06;33.40;99865.22;12210697;19;20543;-81
2023/06/27 17:07:08;;;;;;;3.63;1.58;;;;;;;25.21;33.06;99858.97;12212089;19;20006;-81
2023/06/27 17:11:10;;;;;;;3.97;2.30;;;;;;;25.19;32.62;99863.28;12192785;19;20014;-80
2023/06/27 17:15:14;;;;;;;5.85;1.50;;;;;;;25.18;32.73;99867.28;12213242;19;20260;-81
2023/06/27 17:19:16;;;;;;;6.93;1.75;;;;;;;25.02;32.85;99867.09;12226112;19;20007;-81
2023/06/27 17:23:18;;;;;;;4.88;1.80;;;;;;;24.78;33.10;99862.16;12203822;19;20039;-81
2023/06/27 17:27:19;;;;;;;4.97;1.80;;;;;;;24.51;33.59;99863.50;12229057;19;20010;-81
2023/06/27 17:31:22;;;;;;;5.67;1.70;;;;;;;24.28;33.87;99866.59;12226057;19;20283;-81
2023/06/27 17:35:24;;;;;;;5.55;1.90;;;;;;;24.29;33.68;99865.44;12205797;19;20023;-82
2023/06/27 17:39:26;;;;;;;3.50;1.57;;;;;;;24.25;34.10;99866.47;12224016;19;20031;-80
2023/06/27 17:43:28;;;;;;;4.80;1.75;;;;;;;24.19;33.80;99863.03;12224512;19;20007;-82
2023/06/27 17:47:30;;;;;;;4.22;1.75;;;;;;;24.14;33.90;99857.56;12204746;19;20019;-81
2023/06/27 17:51:31;;;;;;;6.03;1.50;;;;;;;24.02;34.17;99844.22;12226298;19;20476;-80
2023/06/27 17:55:35;;;;;;;3.28;1.70;;;;;;;24.05;34.66;99846.34;12225063;19;20278;-81
2023/06/27 17:59:37;;;;;;;10.63;2.35;;;;;;;24.02;34.41;99844.22;12203796;19;19998;-81
2023/06/27 18:03:39;;;;;;;5.85;2.00;;;;;;;23.99;34.90;99841.28;12222307;19;20115;-81
2023/06/27 18:07:41;;;;;;;5.45;1.80;;;;;;;23.95;35.04;99843.94;12224418;19;20088;-81
2023/06/27 18:11:45;;;;;;;5.38;1.27;;;;;;;23.89;34.91;99848.13;12202707;19;20018;-81
2023/06/27 18:15:48;;;;;;;3.80;1.70;;;;;;;23.75;35.22;99853.13;12224160;19;20476;-81
2023/06/27 18:19:50;;;;;;;9.27;1.73;;;;;;;23.61;35.26;99853.31;12207339;19;20476;-80
2023/06/27 18:23:52;;;;;;;6.90;1.50;;;;;;;23.45;35.20;99855.03;12239823;19;20011;-81
2023/06/27 18:27:55;;;;;;;7.35;1.80;;;;;;;23.31;35.54;99869.28;12225707;19;20413;-81
2023/06/27 18:31:57;;;;;;;4.53;1.67;;;;;;;23.16;36.00;99870.63;12201617;19;20020;-81
2023/06/27 18:36:03;;;;;;;4.93;2.17;;;;;;;23.02;36.14;99867.16;12224687;19;20642;-81
2023/06/27 18:40:06;;;;;;;8.02;2.03;;;;;;;22.92;36.61;99877.53;12222121;19;20010;-82
2023/06/27 18:44:14;;;;;;;4.18;1.42;;;;;;;22.83;36.71;99876.72;12201296;19;20010;-81
2023/06/27 18:48:17;;;;;;;4.57;1.70;;;;;;;22.73;37.06;99874.25;12223463;19;20006;-82